Portada
METAR-TAF:

METAR-TAF

Aeropuertos :

Aeropuerto Internacional de Volgogrado

Volgogrado, Rusia

latitud: 48-47N, longitud: 044-22E, altitud: 145 m

Observación

El informe se hizo hace 21 minutos, a las 02:30 UTC
Viento 6 kt del norte
Temperatura 22°C
Humedad 60%
Presión 1012 hPa
Visibilidad 10 km o más
sin nubes por debajo de 1500 m y sin presencia de cumulonimbus.

METAR: URWW 210230Z 35003MPS CAVOK 22/14 Q1012 R24/010070 NOSIG

Hora: 05:51 (02:51 UTC)

Pronóstico

El informe se hizo hace 54 minutos, a las 01:57 UTC
Pronóstico válido del 21 a las 03 UTC al 21 a las 12 UTC
Viento 10 kt del norte-noroeste con ráfagas de 19 kt
Visibilidad 10 km o más
Nubes dispersas a una altura de 4000 ft, Cumulonimbus.
Temporalmente
del 21 a las 03 UTC al 21 a las 12 UTC
Viento 12 kt del norte con ráfagas de 23 kt

TAF: URWW 210157Z 2103/2112 33005G10MPS 9999 SCT040CB TEMPO 2103/2112 36006G12MPS

Observaciones y pronósticos meteorológicos de más de 4000 aeropuertos (mensajes METAR y TAF).

Los puntos amarillos y rojos representan las estaciones disponibles.

Ponga el ratón en el punto deseado para ver el nombre de la estación.

Haga clic para ver las observaciones y los pronósticos meteorológicos.

Para cambiar el mapa : haga clic en los botones verdes con una cruz de color negro para hacer un zoom, en el botón verde con un guión para alejar o en las flechas verdes para mapas adyacentes.


METAR-TAF: